sensor_id;sensor_type;location;lat;lon;timestamp;P1;durP1;ratioP1;P2;durP2;ratioP2
48993;SDS011;34804;49.214;12.276;2023-03-29T00:02:03;10.30;;;4.75;;
48993;SDS011;34804;49.214;12.276;2023-03-29T00:04:30;10.18;;;5.00;;
48993;SDS011;34804;49.214;12.276;2023-03-29T00:06:56;8.30;;;4.68;;
48993;SDS011;34804;49.214;12.276;2023-03-29T00:09:30;8.90;;;3.83;;
48993;SDS011;34804;49.214;12.276;2023-03-29T00:11:58;10.00;;;3.95;;
48993;SDS011;34804;49.214;12.276;2023-03-29T00:14:27;11.15;;;3.75;;
48993;SDS011;34804;49.214;12.276;2023-03-29T00:16:56;8.68;;;4.10;;
48993;SDS011;34804;49.214;12.276;2023-03-29T00:19:23;7.93;;;3.90;;
48993;SDS011;34804;49.214;12.276;2023-03-29T00:21:50;8.50;;;4.13;;
48993;SDS011;34804;49.214;12.276;2023-03-29T00:24:17;7.90;;;4.05;;
48993;SDS011;34804;49.214;12.276;2023-03-29T00:26:44;6.90;;;3.70;;
48993;SDS011;34804;49.214;12.276;2023-03-29T00:29:10;10.30;;;3.78;;
48993;SDS011;34804;49.214;12.276;2023-03-29T00:31:37;7.45;;;3.67;;
48993;SDS011;34804;49.214;12.276;2023-03-29T00:34:04;9.13;;;4.00;;
48993;SDS011;34804;49.214;12.276;2023-03-29T00:36:31;10.27;;;4.45;;
48993;SDS011;34804;49.214;12.276;2023-03-29T00:38:58;11.95;;;4.95;;
48993;SDS011;34804;49.214;12.276;2023-03-29T00:41:24;10.10;;;5.03;;
48993;SDS011;34804;49.214;12.276;2023-03-29T00:46:23;9.25;;;4.88;;
48993;SDS011;34804;49.214;12.276;2023-03-29T00:48:52;9.02;;;4.78;;
48993;SDS011;34804;49.214;12.276;2023-03-29T00:51:23;8.38;;;4.18;;
48993;SDS011;34804;49.214;12.276;2023-03-29T00:53:55;8.77;;;4.22;;
48993;SDS011;34804;49.214;12.276;2023-03-29T00:56:28;10.38;;;4.20;;
48993;SDS011;34804;49.214;12.276;2023-03-29T00:59:03;10.85;;;4.32;;
48993;SDS011;34804;49.214;12.276;2023-03-29T01:04:08;8.82;;;3.90;;
48993;SDS011;34804;49.214;12.276;2023-03-29T01:06:45;8.68;;;4.13;;
48993;SDS011;34804;49.214;12.276;2023-03-29T01:09:50;7.82;;;4.03;;
48993;SDS011;34804;49.214;12.276;2023-03-29T01:12:25;9.05;;;4.47;;
48993;SDS011;34804;49.214;12.276;2023-03-29T01:15:02;9.55;;;3.83;;
48993;SDS011;34804;49.214;12.276;2023-03-29T01:17:38;9.73;;;4.38;;
48993;SDS011;34804;49.214;12.276;2023-03-29T01:20:10;12.02;;;4.60;;
48993;SDS011;34804;49.214;12.276;2023-03-29T01:28:36;7.25;;;3.50;;
48993;SDS011;34804;49.214;12.276;2023-03-29T01:33:50;7.90;;;4.10;;
48993;SDS011;34804;49.214;12.276;2023-03-29T01:36:28;9.48;;;4.18;;
48993;SDS011;34804;49.214;12.276;2023-03-29T01:39:03;10.82;;;4.28;;
48993;SDS011;34804;49.214;12.276;2023-03-29T01:41:38;8.93;;;4.18;;
48993;SDS011;34804;49.214;12.276;2023-03-29T01:47:14;8.40;;;4.30;;
48993;SDS011;34804;49.214;12.276;2023-03-29T01:50:01;10.00;;;4.13;;
48993;SDS011;34804;49.214;12.276;2023-03-29T01:52:36;10.95;;;4.88;;
48993;SDS011;34804;49.214;12.276;2023-03-29T01:55:10;9.52;;;4.80;;
48993;SDS011;34804;49.214;12.276;2023-03-29T01:57:43;11.48;;;4.50;;
48993;SDS011;34804;49.214;12.276;2023-03-29T02:00:14;11.32;;;4.82;;
48993;SDS011;34804;49.214;12.276;2023-03-29T02:02:44;12.38;;;6.25;;
48993;SDS011;34804;49.214;12.276;2023-03-29T02:05:13;9.38;;;5.95;;
48993;SDS011;34804;49.214;12.276;2023-03-29T02:07:42;14.55;;;6.35;;
48993;SDS011;34804;49.214;12.276;2023-03-29T02:10:11;10.45;;;5.00;;
48993;SDS011;34804;49.214;12.276;2023-03-29T02:12:41;10.98;;;5.28;;
48993;SDS011;34804;49.214;12.276;2023-03-29T02:15:10;14.20;;;5.18;;
48993;SDS011;34804;49.214;12.276;2023-03-29T02:17:38;12.07;;;4.78;;
48993;SDS011;34804;49.214;12.276;2023-03-29T02:20:09;10.20;;;4.75;;
48993;SDS011;34804;49.214;12.276;2023-03-29T02:22:41;8.95;;;4.00;;
48993;SDS011;34804;49.214;12.276;2023-03-29T02:25:30;7.95;;;4.10;;
48993;SDS011;34804;49.214;12.276;2023-03-29T02:27:58;9.50;;;4.25;;
48993;SDS011;34804;49.214;12.276;2023-03-29T02:30:26;7.00;;;3.47;;
48993;SDS011;34804;49.214;12.276;2023-03-29T02:35:32;11.05;;;3.97;;
48993;SDS011;34804;49.214;12.276;2023-03-29T02:38:02;7.78;;;3.90;;
48993;SDS011;34804;49.214;12.276;2023-03-29T02:40:34;9.80;;;3.70;;
48993;SDS011;34804;49.214;12.276;2023-03-29T02:43:04;8.48;;;3.58;;
48993;SDS011;34804;49.214;12.276;2023-03-29T02:45:33;9.57;;;4.15;;
48993;SDS011;34804;49.214;12.276;2023-03-29T02:48:03;8.80;;;4.20;;
48993;SDS011;34804;49.214;12.276;2023-03-29T02:50:34;7.93;;;3.55;;
48993;SDS011;34804;49.214;12.276;2023-03-29T02:53:06;11.68;;;4.32;;
48993;SDS011;34804;49.214;12.276;2023-03-29T02:55:42;9.95;;;3.85;;
48993;SDS011;34804;49.214;12.276;2023-03-29T02:58:11;10.65;;;4.55;;
48993;SDS011;34804;49.214;12.276;2023-03-29T03:00:41;11.02;;;3.80;;
48993;SDS011;34804;49.214;12.276;2023-03-29T03:03:11;10.68;;;4.28;;
48993;SDS011;34804;49.214;12.276;2023-03-29T03:05:40;10.13;;;4.07;;
48993;SDS011;34804;49.214;12.276;2023-03-29T03:08:07;10.25;;;3.88;;
48993;SDS011;34804;49.214;12.276;2023-03-29T03:10:35;8.85;;;4.00;;
48993;SDS011;34804;49.214;12.276;2023-03-29T03:13:02;8.05;;;3.88;;
48993;SDS011;34804;49.214;12.276;2023-03-29T03:15:29;13.18;;;3.75;;
48993;SDS011;34804;49.214;12.276;2023-03-29T03:17:56;9.20;;;3.42;;
48993;SDS011;34804;49.214;12.276;2023-03-29T03:20:23;7.38;;;3.55;;
48993;SDS011;34804;49.214;12.276;2023-03-29T03:22:50;6.75;;;3.78;;
48993;SDS011;34804;49.214;12.276;2023-03-29T03:25:17;7.40;;;3.33;;
48993;SDS011;34804;49.214;12.276;2023-03-29T03:27:46;7.80;;;3.72;;
48993;SDS011;34804;49.214;12.276;2023-03-29T03:30:14;9.40;;;3.50;;
48993;SDS011;34804;49.214;12.276;2023-03-29T03:32:42;10.95;;;3.72;;
48993;SDS011;34804;49.214;12.276;2023-03-29T03:35:10;9.65;;;3.45;;
48993;SDS011;34804;49.214;12.276;2023-03-29T03:37:37;9.60;;;3.22;;
48993;SDS011;34804;49.214;12.276;2023-03-29T03:40:05;8.75;;;4.03;;
48993;SDS011;34804;49.214;12.276;2023-03-29T03:42:37;7.38;;;3.38;;
48993;SDS011;34804;49.214;12.276;2023-03-29T03:45:05;6.90;;;3.05;;
48993;SDS011;34804;49.214;12.276;2023-03-29T03:47:34;7.88;;;3.20;;
48993;SDS011;34804;49.214;12.276;2023-03-29T03:50:03;7.40;;;3.13;;
48993;SDS011;34804;49.214;12.276;2023-03-29T03:52:30;6.15;;;2.95;;
48993;SDS011;34804;49.214;12.276;2023-03-29T03:54:57;7.55;;;3.22;;
48993;SDS011;34804;49.214;12.276;2023-03-29T03:57:25;6.10;;;3.33;;
48993;SDS011;34804;49.214;12.276;2023-03-29T03:59:52;8.98;;;3.40;;
48993;SDS011;34804;49.214;12.276;2023-03-29T04:02:19;8.80;;;3.38;;
48993;SDS011;34804;49.214;12.276;2023-03-29T04:04:47;7.65;;;2.83;;
48993;SDS011;34804;49.214;12.276;2023-03-29T04:07:14;7.32;;;3.53;;
48993;SDS011;34804;49.214;12.276;2023-03-29T04:09:43;6.60;;;3.42;;
48993;SDS011;34804;49.214;12.276;2023-03-29T04:12:10;7.35;;;3.78;;
48993;SDS011;34804;49.214;12.276;2023-03-29T04:14:37;8.77;;;3.47;;
48993;SDS011;34804;49.214;12.276;2023-03-29T04:17:04;7.85;;;4.00;;
48993;SDS011;34804;49.214;12.276;2023-03-29T04:19:31;9.95;;;3.65;;
48993;SDS011;34804;49.214;12.276;2023-03-29T04:21:58;9.60;;;3.53;;
48993;SDS011;34804;49.214;12.276;2023-03-29T04:24:24;7.45;;;3.83;;
48993;SDS011;34804;49.214;12.276;2023-03-29T04:26:51;8.98;;;3.63;;
48993;SDS011;34804;49.214;12.276;2023-03-29T04:29:18;6.45;;;3.70;;
48993;SDS011;34804;49.214;12.276;2023-03-29T04:31:45;8.57;;;3.78;;
48993;SDS011;34804;49.214;12.276;2023-03-29T04:34:12;6.15;;;3.70;;
48993;SDS011;34804;49.214;12.276;2023-03-29T04:36:38;9.18;;;4.20;;
48993;SDS011;34804;49.214;12.276;2023-03-29T04:39:05;8.98;;;4.07;;
48993;SDS011;34804;49.214;12.276;2023-03-29T04:41:33;7.45;;;4.10;;
48993;SDS011;34804;49.214;12.276;2023-03-29T04:44:00;8.20;;;4.30;;
48993;SDS011;34804;49.214;12.276;2023-03-29T04:46:28;7.03;;;3.97;;
48993;SDS011;34804;49.214;12.276;2023-03-29T04:48:55;9.63;;;4.53;;
48993;SDS011;34804;49.214;12.276;2023-03-29T04:51:22;8.35;;;4.50;;
48993;SDS011;34804;49.214;12.276;2023-03-29T04:53:49;8.40;;;4.47;;
48993;SDS011;34804;49.214;12.276;2023-03-29T04:56:16;8.90;;;4.82;;
48993;SDS011;34804;49.214;12.276;2023-03-29T04:58:43;9.82;;;4.88;;
48993;SDS011;34804;49.214;12.276;2023-03-29T05:01:10;8.23;;;4.93;;
48993;SDS011;34804;49.214;12.276;2023-03-29T05:03:37;12.43;;;5.07;;
48993;SDS011;34804;49.214;12.276;2023-03-29T05:06:05;12.05;;;4.75;;
48993;SDS011;34804;49.214;12.276;2023-03-29T05:08:34;9.85;;;5.10;;
48993;SDS011;34804;49.214;12.276;2023-03-29T05:11:05;8.43;;;4.82;;
48993;SDS011;34804;49.214;12.276;2023-03-29T05:13:33;10.40;;;5.45;;
48993;SDS011;34804;49.214;12.276;2023-03-29T05:16:01;8.02;;;5.05;;
48993;SDS011;34804;49.214;12.276;2023-03-29T05:18:29;9.80;;;4.80;;
48993;SDS011;34804;49.214;12.276;2023-03-29T05:20:57;9.15;;;5.20;;
48993;SDS011;34804;49.214;12.276;2023-03-29T05:23:25;10.52;;;5.45;;
48993;SDS011;34804;49.214;12.276;2023-03-29T05:25:53;11.30;;;5.78;;
48993;SDS011;34804;49.214;12.276;2023-03-29T05:28:19;9.13;;;5.07;;
48993;SDS011;34804;49.214;12.276;2023-03-29T05:30:57;12.55;;;5.78;;
48993;SDS011;34804;49.214;12.276;2023-03-29T05:33:26;10.63;;;5.43;;
48993;SDS011;34804;49.214;12.276;2023-03-29T05:36:00;9.55;;;5.60;;
48993;SDS011;34804;49.214;12.276;2023-03-29T05:38:27;10.57;;;6.45;;
48993;SDS011;34804;49.214;12.276;2023-03-29T05:40:55;11.25;;;6.18;;
48993;SDS011;34804;49.214;12.276;2023-03-29T05:43:22;11.52;;;6.35;;
48993;SDS011;34804;49.214;12.276;2023-03-29T05:45:51;12.25;;;6.68;;
48993;SDS011;34804;49.214;12.276;2023-03-29T05:48:21;13.27;;;7.22;;
48993;SDS011;34804;49.214;12.276;2023-03-29T05:50:50;13.48;;;6.82;;
48993;SDS011;34804;49.214;12.276;2023-03-29T05:53:19;9.95;;;6.03;;
48993;SDS011;34804;49.214;12.276;2023-03-29T05:55:49;10.80;;;6.15;;
48993;SDS011;34804;49.214;12.276;2023-03-29T05:58:17;10.27;;;5.47;;
48993;SDS011;34804;49.214;12.276;2023-03-29T06:00:45;9.88;;;5.50;;
48993;SDS011;34804;49.214;12.276;2023-03-29T06:03:17;9.02;;;5.35;;
48993;SDS011;34804;49.214;12.276;2023-03-29T06:05:48;10.05;;;5.57;;
48993;SDS011;34804;49.214;12.276;2023-03-29T06:08:21;9.35;;;5.75;;
48993;SDS011;34804;49.214;12.276;2023-03-29T06:10:48;10.35;;;5.65;;
48993;SDS011;34804;49.214;12.276;2023-03-29T06:13:15;8.75;;;5.18;;
48993;SDS011;34804;49.214;12.276;2023-03-29T06:15:42;9.45;;;5.60;;
48993;SDS011;34804;49.214;12.276;2023-03-29T06:18:10;9.63;;;5.55;;
48993;SDS011;34804;49.214;12.276;2023-03-29T06:20:37;9.20;;;5.47;;
48993;SDS011;34804;49.214;12.276;2023-03-29T06:23:04;9.55;;;5.25;;
48993;SDS011;34804;49.214;12.276;2023-03-29T06:25:31;9.70;;;5.70;;
48993;SDS011;34804;49.214;12.276;2023-03-29T06:27:59;9.70;;;5.40;;
48993;SDS011;34804;49.214;12.276;2023-03-29T06:30:26;10.00;;;5.68;;
48993;SDS011;34804;49.214;12.276;2023-03-29T06:32:53;9.77;;;5.72;;
48993;SDS011;34804;49.214;12.276;2023-03-29T06:35:20;10.75;;;5.75;;
48993;SDS011;34804;49.214;12.276;2023-03-29T06:37:47;9.52;;;5.32;;
48993;SDS011;34804;49.214;12.276;2023-03-29T06:40:19;10.07;;;5.72;;
48993;SDS011;34804;49.214;12.276;2023-03-29T06:42:49;11.93;;;5.60;;
48993;SDS011;34804;49.214;12.276;2023-03-29T06:45:23;9.60;;;6.07;;
48993;SDS011;34804;49.214;12.276;2023-03-29T06:47:54;10.77;;;6.20;;
48993;SDS011;34804;49.214;12.276;2023-03-29T06:50:21;13.57;;;6.22;;
48993;SDS011;34804;49.214;12.276;2023-03-29T06:52:49;10.18;;;5.82;;
48993;SDS011;34804;49.214;12.276;2023-03-29T06:55:15;10.63;;;5.57;;
48993;SDS011;34804;49.214;12.276;2023-03-29T06:57:43;11.85;;;5.55;;
48993;SDS011;34804;49.214;12.276;2023-03-29T07:00:10;12.80;;;5.50;;
48993;SDS011;34804;49.214;12.276;2023-03-29T07:02:44;11.40;;;5.55;;
48993;SDS011;34804;49.214;12.276;2023-03-29T07:05:12;11.38;;;5.22;;
48993;SDS011;34804;49.214;12.276;2023-03-29T07:07:39;11.77;;;5.57;;
48993;SDS011;34804;49.214;12.276;2023-03-29T07:10:20;10.05;;;5.32;;
48993;SDS011;34804;49.214;12.276;2023-03-29T07:12:51;9.93;;;4.90;;
48993;SDS011;34804;49.214;12.276;2023-03-29T07:15:19;8.85;;;5.20;;
48993;SDS011;34804;49.214;12.276;2023-03-29T07:17:47;11.05;;;5.03;;
48993;SDS011;34804;49.214;12.276;2023-03-29T07:20:14;10.48;;;5.05;;
48993;SDS011;34804;49.214;12.276;2023-03-29T07:22:42;9.45;;;5.32;;
48993;SDS011;34804;49.214;12.276;2023-03-29T07:25:10;8.07;;;4.95;;
48993;SDS011;34804;49.214;12.276;2023-03-29T07:27:38;13.18;;;5.63;;
48993;SDS011;34804;49.214;12.276;2023-03-29T07:30:07;9.95;;;5.10;;
48993;SDS011;34804;49.214;12.276;2023-03-29T07:32:37;8.48;;;4.75;;
48993;SDS011;34804;49.214;12.276;2023-03-29T07:35:05;11.48;;;5.15;;
48993;SDS011;34804;49.214;12.276;2023-03-29T07:37:34;8.60;;;4.53;;
48993;SDS011;34804;49.214;12.276;2023-03-29T07:40:03;8.85;;;4.28;;
48993;SDS011;34804;49.214;12.276;2023-03-29T07:45:04;6.43;;;3.50;;
48993;SDS011;34804;49.214;12.276;2023-03-29T07:47:32;8.07;;;4.28;;
48993;SDS011;34804;49.214;12.276;2023-03-29T07:50:00;8.85;;;4.05;;
48993;SDS011;34804;49.214;12.276;2023-03-29T07:52:28;6.13;;;3.95;;
48993;SDS011;34804;49.214;12.276;2023-03-29T07:54:55;7.07;;;4.05;;
48993;SDS011;34804;49.214;12.276;2023-03-29T07:57:23;8.18;;;4.28;;
48993;SDS011;34804;49.214;12.276;2023-03-29T07:59:52;6.53;;;3.75;;
48993;SDS011;34804;49.214;12.276;2023-03-29T08:02:19;7.55;;;3.42;;
48993;SDS011;34804;49.214;12.276;2023-03-29T08:04:46;6.57;;;3.30;;
48993;SDS011;34804;49.214;12.276;2023-03-29T08:07:13;6.18;;;3.50;;
48993;SDS011;34804;49.214;12.276;2023-03-29T08:09:44;7.05;;;3.88;;
48993;SDS011;34804;49.214;12.276;2023-03-29T08:12:11;7.80;;;3.72;;
48993;SDS011;34804;49.214;12.276;2023-03-29T08:14:38;7.28;;;3.50;;
48993;SDS011;34804;49.214;12.276;2023-03-29T08:17:05;7.60;;;3.45;;
48993;SDS011;34804;49.214;12.276;2023-03-29T08:19:32;6.22;;;3.40;;
48993;SDS011;34804;49.214;12.276;2023-03-29T08:21:59;6.65;;;3.33;;
48993;SDS011;34804;49.214;12.276;2023-03-29T08:24:26;8.07;;;3.83;;
48993;SDS011;34804;49.214;12.276;2023-03-29T08:26:53;6.15;;;3.80;;
48993;SDS011;34804;49.214;12.276;2023-03-29T08:29:20;6.28;;;3.22;;
48993;SDS011;34804;49.214;12.276;2023-03-29T08:31:47;5.97;;;3.50;;
48993;SDS011;34804;49.214;12.276;2023-03-29T08:34:14;6.88;;;3.33;;
48993;SDS011;34804;49.214;12.276;2023-03-29T08:36:41;5.57;;;3.28;;
48993;SDS011;34804;49.214;12.276;2023-03-29T08:39:08;5.90;;;3.53;;
48993;SDS011;34804;49.214;12.276;2023-03-29T08:44:40;7.82;;;3.50;;
48993;SDS011;34804;49.214;12.276;2023-03-29T08:50:13;7.25;;;3.47;;
48993;SDS011;34804;49.214;12.276;2023-03-29T08:52:43;6.90;;;3.63;;
48993;SDS011;34804;49.214;12.276;2023-03-29T08:55:31;6.53;;;3.78;;
48993;SDS011;34804;49.214;12.276;2023-03-29T08:58:03;6.78;;;4.20;;
48993;SDS011;34804;49.214;12.276;2023-03-29T09:06:03;7.47;;;3.80;;
48993;SDS011;34804;49.214;12.276;2023-03-29T09:08:34;6.35;;;3.60;;
48993;SDS011;34804;49.214;12.276;2023-03-29T09:14:18;8.10;;;3.70;;
48993;SDS011;34804;49.214;12.276;2023-03-29T09:19:42;9.80;;;3.83;;
48993;SDS011;34804;49.214;12.276;2023-03-29T09:22:30;7.53;;;3.90;;
48993;SDS011;34804;49.214;12.276;2023-03-29T09:30:25;8.18;;;4.00;;
48993;SDS011;34804;49.214;12.276;2023-03-29T09:33:24;7.00;;;4.20;;
48993;SDS011;34804;49.214;12.276;2023-03-29T09:38:36;7.95;;;4.45;;
48993;SDS011;34804;49.214;12.276;2023-03-29T09:41:19;10.30;;;4.25;;
48993;SDS011;34804;49.214;12.276;2023-03-29T09:43:52;6.80;;;4.20;;
48993;SDS011;34804;49.214;12.276;2023-03-29T09:46:26;8.52;;;3.70;;
48993;SDS011;34804;49.214;12.276;2023-03-29T09:48:56;6.22;;;3.67;;
48993;SDS011;34804;49.214;12.276;2023-03-29T09:51:23;8.48;;;4.10;;
48993;SDS011;34804;49.214;12.276;2023-03-29T09:53:56;7.15;;;4.07;;
48993;SDS011;34804;49.214;12.276;2023-03-29T09:56:25;9.10;;;4.15;;
48993;SDS011;34804;49.214;12.276;2023-03-29T09:58:53;9.98;;;4.00;;
48993;SDS011;34804;49.214;12.276;2023-03-29T10:01:20;6.50;;;3.83;;
48993;SDS011;34804;49.214;12.276;2023-03-29T10:03:49;7.10;;;4.07;;
48993;SDS011;34804;49.214;12.276;2023-03-29T10:06:18;7.18;;;3.70;;
48993;SDS011;34804;49.214;12.276;2023-03-29T10:08:48;6.47;;;3.60;;
48993;SDS011;34804;49.214;12.276;2023-03-29T10:11:21;7.65;;;3.47;;
48993;SDS011;34804;49.214;12.276;2023-03-29T10:13:57;9.00;;;3.63;;
48993;SDS011;34804;49.214;12.276;2023-03-29T10:16:28;6.00;;;3.73;;
48993;SDS011;34804;49.214;12.276;2023-03-29T10:19:27;7.15;;;3.78;;
48993;SDS011;34804;49.214;12.276;2023-03-29T10:21:58;7.95;;;3.95;;
48993;SDS011;34804;49.214;12.276;2023-03-29T10:24:29;6.53;;;3.63;;
48993;SDS011;34804;49.214;12.276;2023-03-29T10:26:58;5.32;;;3.50;;
48993;SDS011;34804;49.214;12.276;2023-03-29T10:29:26;6.75;;;3.95;;
48993;SDS011;34804;49.214;12.276;2023-03-29T10:32:11;7.00;;;3.50;;
48993;SDS011;34804;49.214;12.276;2023-03-29T10:34:48;7.53;;;3.70;;
48993;SDS011;34804;49.214;12.276;2023-03-29T10:37:17;9.32;;;3.58;;
48993;SDS011;34804;49.214;12.276;2023-03-29T10:39:45;6.25;;;3.55;;
48993;SDS011;34804;49.214;12.276;2023-03-29T10:42:15;7.60;;;3.95;;
48993;SDS011;34804;49.214;12.276;2023-03-29T10:44:57;6.78;;;3.45;;
48993;SDS011;34804;49.214;12.276;2023-03-29T10:47:25;8.25;;;3.78;;
48993;SDS011;34804;49.214;12.276;2023-03-29T10:49:59;7.57;;;4.40;;
48993;SDS011;34804;49.214;12.276;2023-03-29T10:52:28;7.53;;;4.10;;
48993;SDS011;34804;49.214;12.276;2023-03-29T10:54:55;6.88;;;3.60;;
48993;SDS011;34804;49.214;12.276;2023-03-29T10:57:25;7.95;;;3.80;;
48993;SDS011;34804;49.214;12.276;2023-03-29T11:05:33;7.00;;;4.10;;
48993;SDS011;34804;49.214;12.276;2023-03-29T11:08:25;6.10;;;3.55;;
48993;SDS011;34804;49.214;12.276;2023-03-29T11:11:05;8.48;;;3.80;;
48993;SDS011;34804;49.214;12.276;2023-03-29T11:25:26;6.78;;;3.05;;
48993;SDS011;34804;49.214;12.276;2023-03-29T11:28:29;7.23;;;4.07;;
48993;SDS011;34804;49.214;12.276;2023-03-29T11:31:22;5.80;;;3.55;;
48993;SDS011;34804;49.214;12.276;2023-03-29T11:42:06;5.95;;;3.58;;
48993;SDS011;34804;49.214;12.276;2023-03-29T11:44:39;7.07;;;3.95;;
48993;SDS011;34804;49.214;12.276;2023-03-29T11:47:13;6.82;;;3.80;;
48993;SDS011;34804;49.214;12.276;2023-03-29T11:53:04;7.35;;;3.95;;
48993;SDS011;34804;49.214;12.276;2023-03-29T11:55:45;7.15;;;3.70;;
48993;SDS011;34804;49.214;12.276;2023-03-29T11:58:21;6.88;;;3.70;;
48993;SDS011;34804;49.214;12.276;2023-03-29T12:01:00;6.10;;;3.72;;
48993;SDS011;34804;49.214;12.276;2023-03-29T12:03:37;7.15;;;3.88;;
48993;SDS011;34804;49.214;12.276;2023-03-29T12:09:06;6.53;;;3.90;;
48993;SDS011;34804;49.214;12.276;2023-03-29T12:11:36;7.18;;;4.07;;
48993;SDS011;34804;49.214;12.276;2023-03-29T12:14:14;8.47;;;3.63;;
48993;SDS011;34804;49.214;12.276;2023-03-29T12:16:56;8.98;;;4.30;;
48993;SDS011;34804;49.214;12.276;2023-03-29T12:21:57;6.82;;;4.22;;
48993;SDS011;34804;49.214;12.276;2023-03-29T12:24:26;8.32;;;3.97;;
48993;SDS011;34804;49.214;12.276;2023-03-29T12:38:13;10.10;;;4.60;;
48993;SDS011;34804;49.214;12.276;2023-03-29T12:40:45;6.07;;;3.75;;
48993;SDS011;34804;49.214;12.276;2023-03-29T12:43:59;6.68;;;3.80;;
48993;SDS011;34804;49.214;12.276;2023-03-29T12:46:08;9.40;;;4.53;;
48993;SDS011;34804;49.214;12.276;2023-03-29T12:48:40;7.20;;;4.25;;
48993;SDS011;34804;49.214;12.276;2023-03-29T12:51:17;7.75;;;3.53;;
48993;SDS011;34804;49.214;12.276;2023-03-29T12:53:51;9.15;;;4.03;;
48993;SDS011;34804;49.214;12.276;2023-03-29T12:56:21;7.95;;;3.85;;
48993;SDS011;34804;49.214;12.276;2023-03-29T13:01:36;6.35;;;4.00;;
48993;SDS011;34804;49.214;12.276;2023-03-29T13:04:14;7.38;;;3.70;;
48993;SDS011;34804;49.214;12.276;2023-03-29T13:09:28;7.47;;;3.83;;
48993;SDS011;34804;49.214;12.276;2023-03-29T13:20:35;7.05;;;3.88;;
48993;SDS011;34804;49.214;12.276;2023-03-29T13:31:47;6.82;;;3.65;;
48993;SDS011;34804;49.214;12.276;2023-03-29T13:39:49;6.35;;;3.70;;
48993;SDS011;34804;49.214;12.276;2023-03-29T13:42:19;6.72;;;3.50;;
48993;SDS011;34804;49.214;12.276;2023-03-29T13:44:51;5.65;;;3.42;;
48993;SDS011;34804;49.214;12.276;2023-03-29T13:49:59;9.05;;;3.97;;
48993;SDS011;34804;49.214;12.276;2023-03-29T13:52:37;8.27;;;3.83;;
48993;SDS011;34804;49.214;12.276;2023-03-29T13:55:16;7.15;;;3.75;;
48993;SDS011;34804;49.214;12.276;2023-03-29T13:57:55;6.32;;;3.28;;
48993;SDS011;34804;49.214;12.276;2023-03-29T14:00:40;7.30;;;3.67;;
48993;SDS011;34804;49.214;12.276;2023-03-29T14:03:13;7.53;;;3.83;;
48993;SDS011;34804;49.214;12.276;2023-03-29T14:05:42;7.53;;;4.20;;
48993;SDS011;34804;49.214;12.276;2023-03-29T14:08:15;9.65;;;4.05;;
48993;SDS011;34804;49.214;12.276;2023-03-29T14:10:52;9.18;;;3.78;;
48993;SDS011;34804;49.214;12.276;2023-03-29T14:13:21;6.90;;;3.55;;
48993;SDS011;34804;49.214;12.276;2023-03-29T14:16:00;8.88;;;3.70;;
48993;SDS011;34804;49.214;12.276;2023-03-29T14:18:33;5.50;;;3.38;;
48993;SDS011;34804;49.214;12.276;2023-03-29T14:21:04;6.45;;;3.95;;
48993;SDS011;34804;49.214;12.276;2023-03-29T14:23:32;7.45;;;3.50;;
48993;SDS011;34804;49.214;12.276;2023-03-29T14:26:15;5.78;;;3.42;;
48993;SDS011;34804;49.214;12.276;2023-03-29T14:28:48;5.95;;;3.38;;
48993;SDS011;34804;49.214;12.276;2023-03-29T14:31:23;6.00;;;3.45;;
48993;SDS011;34804;49.214;12.276;2023-03-29T14:33:53;8.30;;;3.72;;
48993;SDS011;34804;49.214;12.276;2023-03-29T14:36:22;9.38;;;3.83;;
48993;SDS011;34804;49.214;12.276;2023-03-29T14:39:00;8.43;;;4.00;;
48993;SDS011;34804;49.214;12.276;2023-03-29T14:41:31;7.15;;;3.63;;
48993;SDS011;34804;49.214;12.276;2023-03-29T14:44:00;7.30;;;3.50;;
48993;SDS011;34804;49.214;12.276;2023-03-29T14:46:28;7.88;;;3.88;;
48993;SDS011;34804;49.214;12.276;2023-03-29T14:48:55;8.27;;;3.70;;
48993;SDS011;34804;49.214;12.276;2023-03-29T14:51:25;7.85;;;3.88;;
48993;SDS011;34804;49.214;12.276;2023-03-29T14:53:59;8.77;;;3.75;;
48993;SDS011;34804;49.214;12.276;2023-03-29T14:56:29;7.10;;;3.90;;
48993;SDS011;34804;49.214;12.276;2023-03-29T14:59:01;7.25;;;4.13;;
48993;SDS011;34804;49.214;12.276;2023-03-29T15:01:29;8.73;;;3.60;;
48993;SDS011;34804;49.214;12.276;2023-03-29T15:04:01;6.47;;;3.33;;
48993;SDS011;34804;49.214;12.276;2023-03-29T15:06:31;7.10;;;4.05;;
48993;SDS011;34804;49.214;12.276;2023-03-29T15:09:03;8.95;;;4.28;;
48993;SDS011;34804;49.214;12.276;2023-03-29T15:11:32;7.30;;;3.85;;
48993;SDS011;34804;49.214;12.276;2023-03-29T15:14:01;6.63;;;3.38;;
48993;SDS011;34804;49.214;12.276;2023-03-29T15:16:30;5.68;;;3.47;;
48993;SDS011;34804;49.214;12.276;2023-03-29T15:18:58;5.65;;;3.03;;
48993;SDS011;34804;49.214;12.276;2023-03-29T15:21:30;5.82;;;3.17;;
48993;SDS011;34804;49.214;12.276;2023-03-29T15:24:02;7.70;;;3.22;;
48993;SDS011;34804;49.214;12.276;2023-03-29T15:26:31;7.45;;;4.00;;
48993;SDS011;34804;49.214;12.276;2023-03-29T15:29:12;8.50;;;3.80;;
48993;SDS011;34804;49.214;12.276;2023-03-29T15:31:55;6.93;;;3.88;;
48993;SDS011;34804;49.214;12.276;2023-03-29T15:34:25;7.75;;;3.80;;
48993;SDS011;34804;49.214;12.276;2023-03-29T15:36:53;6.82;;;4.10;;
48993;SDS011;34804;49.214;12.276;2023-03-29T15:39:22;8.40;;;4.90;;
48993;SDS011;34804;49.214;12.276;2023-03-29T15:41:52;6.80;;;3.95;;
48993;SDS011;34804;49.214;12.276;2023-03-29T15:44:28;7.53;;;4.40;;
48993;SDS011;34804;49.214;12.276;2023-03-29T15:46:58;8.02;;;4.50;;
48993;SDS011;34804;49.214;12.276;2023-03-29T15:49:25;6.95;;;4.40;;
48993;SDS011;34804;49.214;12.276;2023-03-29T15:51:52;9.77;;;4.88;;
48993;SDS011;34804;49.214;12.276;2023-03-29T15:54:19;9.30;;;4.65;;
48993;SDS011;34804;49.214;12.276;2023-03-29T15:56:48;8.35;;;4.57;;
48993;SDS011;34804;49.214;12.276;2023-03-29T15:59:20;8.98;;;5.07;;
48993;SDS011;34804;49.214;12.276;2023-03-29T16:01:48;8.10;;;4.30;;
48993;SDS011;34804;49.214;12.276;2023-03-29T16:04:16;9.57;;;5.18;;
48993;SDS011;34804;49.214;12.276;2023-03-29T16:06:46;8.65;;;4.72;;
48993;SDS011;34804;49.214;12.276;2023-03-29T16:09:14;7.30;;;3.95;;
48993;SDS011;34804;49.214;12.276;2023-03-29T16:11:42;7.97;;;4.10;;
48993;SDS011;34804;49.214;12.276;2023-03-29T16:14:13;8.07;;;4.07;;
48993;SDS011;34804;49.214;12.276;2023-03-29T16:16:50;6.85;;;3.90;;
48993;SDS011;34804;49.214;12.276;2023-03-29T16:19:17;6.63;;;3.78;;
48993;SDS011;34804;49.214;12.276;2023-03-29T16:21:44;7.28;;;3.75;;
48993;SDS011;34804;49.214;12.276;2023-03-29T16:24:12;11.07;;;4.97;;
48993;SDS011;34804;49.214;12.276;2023-03-29T16:26:45;8.63;;;4.45;;
48993;SDS011;34804;49.214;12.276;2023-03-29T16:29:13;7.53;;;3.88;;
48993;SDS011;34804;49.214;12.276;2023-03-29T16:31:46;9.07;;;4.00;;
48993;SDS011;34804;49.214;12.276;2023-03-29T16:34:14;7.28;;;4.10;;
48993;SDS011;34804;49.214;12.276;2023-03-29T16:36:44;9.02;;;3.80;;
48993;SDS011;34804;49.214;12.276;2023-03-29T16:39:12;6.78;;;3.90;;
48993;SDS011;34804;49.214;12.276;2023-03-29T16:41:40;7.65;;;4.20;;
48993;SDS011;34804;49.214;12.276;2023-03-29T16:44:11;10.25;;;4.28;;
48993;SDS011;34804;49.214;12.276;2023-03-29T16:46:41;6.28;;;3.60;;
48993;SDS011;34804;49.214;12.276;2023-03-29T16:49:10;7.45;;;4.18;;
48993;SDS011;34804;49.214;12.276;2023-03-29T16:51:46;10.40;;;3.92;;
48993;SDS011;34804;49.214;12.276;2023-03-29T16:54:13;8.63;;;4.35;;
48993;SDS011;34804;49.214;12.276;2023-03-29T16:56:42;10.40;;;4.30;;